Weather History for Savannah Hunter, GA

Change the Weather History Date:

Thursday, January 10, 2013

  Actual Average Record
Temperature  
Mean Temperature 62 °F -  
Max Temperature 71 °F 60 °F 76 °F (2008)
Min Temperature 53 °F 37 °F 26 °F (2001)
Degree Days  
Heating Degree Days 3    
Growing Degree Days 12 (Base 50)    
Moisture  
Dew Point 59 °F    
Average Humidity 97    
Maximum Humidity 100    
Minimum Humidity 64    
Precipitation  
Precipitation 0.02 in - - ()
Sea Level Pressure  
Sea Level Pressure 30.36 in    
Wind  
Wind Speed 2 mph (NE)    
Max Wind Speed 14 mph    
Max Gust Speed 21 mph    
Visibility 3 miles    
Events Fog , Rain    
Averages and records for this station are not official NWS values.
T = Trace of Precipitation, MM = Missing Value Source: NWS Daily Summary

Daily Weather History Graph

Daily Weather History Graph

Search for Another Location

Airport:

Trip Planner

Search our weather history database for the weather conditions in past years. The results will help you decide how hot, cold, wet, or windy it might be!

Date:

Astronomy

Jan. 10, 2013 Rise Set
Actual Time 7:25 AM EST 5:38 PM EST
Civil Twilight 6:59 AM EST 6:05 PM EST
Nautical Twilight 6:29 AM EST 6:35 PM EST
Astronomical Twilight 5:59 AM EST 7:05 PM EST
Moon 6:04 AM EST (1/10) 4:44 PM EST (1/10)
Length of Visible Light 11h 06m
Length of Day
10h 12m
Waning Crescent, 2% of the Moon is Illuminated
Jan 10
Waning Crescent
Jan 11
New
Jan 18
First Quarter
Jan 26
Full
Feb 3
Last Quarter

Hourly Weather History & Observations

Time (EST) Temp. Dew Point Humidity Pressure Visibility Wind Dir Wind Speed Gust Speed Precip Events Conditions
12:02 AM 57.2 °F 57.2 °F 100% 30.38 in 2.0 mi Calm Calm - N/A   Clear
12:03 AM 57.2 °F 57.2 °F 100% 30.38 in 1.5 mi Calm Calm - N/A   Clear
12:04 AM 57.2 °F 57.2 °F 100% 30.38 in 1.2 mi Calm Calm - N/A   Clear
12:06 AM 57.2 °F 55.4 °F 94% 30.38 in 1.0 mi Calm Calm - N/A   Clear
12:07 AM 57.2 °F 55.4 °F 94% 30.38 in 1.0 mi Calm Calm - N/A   Clear
12:08 AM 57.2 °F 55.4 °F 94% 30.38 in 0.8 mi Calm Calm - N/A   Clear
12:09 AM 57.2 °F 55.4 °F 94% 30.38 in 0.8 mi Calm Calm - N/A   Clear
12:10 AM 57.2 °F 55.4 °F 94% 30.38 in 0.8 mi Calm Calm - N/A   Clear
12:11 AM 55.4 °F 55.4 °F 100% 30.38 in 0.5 mi Calm Calm - N/A Fog Fog
12:15 AM 55.4 °F 55.4 °F 100% 30.38 in 0.5 mi Calm Calm - N/A Fog Fog
12:16 AM 55.4 °F 55.4 °F 100% 30.38 in 0.2 mi Calm Calm - N/A Fog Fog
12:25 AM 55.4 °F 55.4 °F 100% 30.38 in 0.2 mi Calm Calm - N/A Fog Fog
12:26 AM 55.4 °F 55.4 °F 100% 30.38 in 0.5 mi Calm Calm - N/A Fog Fog
12:29 AM 55.4 °F 55.4 °F 100% 30.38 in 0.8 mi Calm Calm - N/A   Clear
12:33 AM 55.4 °F 53.6 °F 94% 30.38 in 1.0 mi Calm Calm - N/A   Clear
12:35 AM 55.4 °F 53.6 °F 94% 30.38 in 0.8 mi Calm Calm - N/A   Clear
12:37 AM 55.4 °F 53.6 °F 94% 30.38 in 0.8 mi Calm Calm - N/A   Clear
12:38 AM 55.4 °F 53.6 °F 94% 30.38 in 0.8 mi Calm Calm - N/A   Clear
12:44 AM 55.4 °F 55.4 °F 100% 30.37 in 0.8 mi Calm Calm - N/A   Clear
12:46 AM 55.4 °F 55.4 °F 100% 30.37 in 0.8 mi Calm Calm - N/A   Clear
12:47 AM 55.4 °F 55.4 °F 100% 30.37 in 1.0 mi Calm Calm - N/A   Clear
12:50 AM 55.4 °F 53.6 °F 94% 30.37 in 1.2 mi Calm Calm - N/A   Clear
12:51 AM 55.4 °F 53.6 °F 94% 30.37 in 1.8 mi Calm Calm - N/A   Clear
12:52 AM 53.6 °F 53.6 °F 100% 30.37 in 2.5 mi Calm Calm - N/A   Clear
12:53 AM 53.6 °F 53.6 °F 100% 30.37 in 3.0 mi Calm Calm - N/A   Clear
12:55 AM 54.1 °F 53.4 °F 97% 30.37 in 4.0 mi NNW 3.5 mph - N/A   Clear
1:55 AM 56.8 °F 56.3 °F 98% 30.37 in 10.0 mi Calm Calm - N/A   Clear
2:06 AM 57.2 °F 55.4 °F 94% 30.37 in 7.0 mi Calm Calm - N/A   Clear
2:14 AM 57.2 °F 55.4 °F 94% 30.37 in 2.5 mi Calm Calm - N/A   Clear
2:21 AM 55.4 °F 55.4 °F 100% 30.37 in 2.5 mi Calm Calm - N/A   Clear
2:24 AM 55.4 °F 55.4 °F 100% 30.37 in 1.8 mi Calm Calm - N/A   Clear
2:26 AM 55.4 °F 55.4 °F 100% 30.37 in 1.5 mi Calm Calm - N/A   Clear
2:28 AM 55.4 °F 55.4 °F 100% 30.37 in 1.2 mi Calm Calm - N/A   Clear
2:29 AM 55.4 °F 55.4 °F 100% 30.37 in 1.0 mi Calm Calm - N/A   Clear
2:30 AM 55.4 °F 55.4 °F 100% 30.37 in 0.8 mi Calm Calm - N/A   Clear
2:35 AM 57.2 °F 55.4 °F 94% 30.36 in 1.0 mi North 3.5 mph - N/A   Clear
2:37 AM 55.4 °F 55.4 °F 100% 30.36 in 1.0 mi North 3.5 mph - N/A   Clear
2:38 AM 55.4 °F 55.4 °F 100% 30.36 in 1.2 mi North 3.5 mph - N/A   Clear
2:39 AM 55.4 °F 55.4 °F 100% 30.36 in 1.8 mi North 3.5 mph - N/A   Clear
2:40 AM 55.4 °F 55.4 °F 100% 30.36 in 2.5 mi North 3.5 mph - N/A   Clear
2:41 AM 55.4 °F 55.4 °F 100% 30.36 in 3.0 mi Calm Calm - N/A   Clear
2:55 AM 55.9 °F 55.6 °F 99% 30.36 in 6.0 mi Calm Calm - N/A   Clear
3:12 AM 55.4 °F 55.4 °F 100% 30.36 in 2.5 mi Calm Calm - N/A   Clear
3:13 AM 55.4 °F 55.4 °F 100% 30.36 in 1.8 mi Calm Calm - N/A   Clear
3:14 AM 55.4 °F 55.4 °F 100% 30.36 in 1.5 mi Calm Calm - N/A   Clear
3:15 AM 55.4 °F 53.6 °F 94% 30.36 in 1.0 mi Calm Calm - N/A   Clear
3:17 AM 55.4 °F 53.6 °F 94% 30.36 in 0.8 mi Calm Calm - N/A   Clear
3:22 AM 55.4 °F 55.4 °F 100% 30.36 in 0.8 mi Calm Calm - N/A   Clear
3:23 AM 55.4 °F 55.4 °F 100% 30.36 in 1.0 mi Calm Calm - N/A   Clear
3:25 AM 55.4 °F 55.4 °F 100% 30.36 in 1.2 mi Calm Calm - N/A   Clear
3:26 AM 55.4 °F 55.4 °F 100% 30.36 in 2.0 mi Calm Calm - N/A   Clear
3:27 AM 55.4 °F 55.4 °F 100% 30.36 in 3.0 mi Calm Calm - N/A   Clear
3:35 AM 55.4 °F 55.4 °F 100% 30.36 in 3.0 mi Calm Calm - N/A   Clear
3:48 AM 55.4 °F 55.4 °F 100% 30.35 in 2.5 mi Calm Calm - N/A   Clear
3:50 AM 55.4 °F 55.4 °F 100% 30.35 in 1.5 mi Calm Calm - N/A   Clear
3:51 AM 55.4 °F 55.4 °F 100% 30.35 in 1.2 mi Calm Calm - N/A   Clear
3:52 AM 55.4 °F 55.4 °F 100% 30.35 in 1.0 mi Calm Calm - N/A   Clear
3:54 AM 55.4 °F 55.4 °F 100% 30.35 in 0.8 mi Calm Calm - N/A   Clear
3:55 AM 56.3 °F 56.3 °F 100% 30.35 in 0.8 mi Calm Calm - N/A   Clear
3:57 AM 57.2 °F 57.2 °F 100% 30.35 in 0.8 mi Calm Calm - N/A   Clear
4:08 AM 55.4 °F 55.4 °F 100% 30.35 in 0.8 mi Calm Calm - N/A   Mostly Cloudy
4:09 AM 55.4 °F 55.4 °F 100% 30.35 in 1.0 mi Calm Calm - N/A   Mostly Cloudy
4:12 AM 55.4 °F 55.4 °F 100% 30.35 in 1.2 mi Calm Calm - N/A   Mostly Cloudy
4:14 AM 55.4 °F 55.4 °F 100% 30.35 in 1.5 mi Calm Calm - N/A   Mostly Cloudy
4:15 AM 55.4 °F 55.4 °F 100% 30.35 in 2.0 mi Calm Calm - N/A   Mostly Cloudy
4:18 AM 57.2 °F 57.2 °F 100% 30.35 in 3.0 mi Calm Calm - N/A   Mostly Cloudy
4:29 AM 57.2 °F 57.2 °F 100% 30.35 in 7.0 mi Calm Calm - N/A   Mostly Cloudy
4:55 AM 57.7 °F 57.7 °F 100% 30.35 in 6.0 mi Calm Calm - N/A   Overcast
5:02 AM 57.2 °F 57.2 °F 100% 30.35 in 3.0 mi North 3.5 mph - N/A   Overcast
5:03 AM 57.2 °F 57.2 °F 100% 30.35 in 2.5 mi North 3.5 mph - N/A   Overcast
5:06 AM 57.2 °F 57.2 °F 100% 30.35 in 1.8 mi Calm Calm - N/A   Overcast
5:08 AM 57.2 °F 57.2 °F 100% 30.35 in 1.5 mi NNE 3.5 mph - N/A   Overcast
5:09 AM 57.2 °F 57.2 °F 100% 30.35 in 1.2 mi NNE 3.5 mph - N/A   Overcast
5:11 AM 57.2 °F 57.2 °F 100% 30.35 in 1.0 mi Calm Calm - N/A   Mist
5:14 AM 57.2 °F 57.2 °F 100% 30.35 in 0.8 mi Calm Calm - N/A   Mist
5:16 AM 57.2 °F 57.2 °F 100% 30.35 in 0.8 mi Calm Calm - N/A   Mist
5:18 AM 57.2 °F 57.2 °F 100% 30.35 in 0.8 mi Calm Calm - N/A   Mist
5:21 AM 57.2 °F 57.2 °F 100% 30.35 in 0.5 mi North 4.6 mph - N/A Fog Fog
5:32 AM 59.0 °F 59.0 °F 100% 30.35 in 0.8 mi NNE 3.5 mph - N/A   Mist
5:34 AM 59.0 °F 59.0 °F 100% 30.35 in 0.8 mi NNE 4.6 mph - N/A   Mist
5:37 AM 59.0 °F 59.0 °F 100% 30.36 in 0.8 mi NNE 5.8 mph - N/A   Mist
5:39 AM 59.0 °F 59.0 °F 100% 30.36 in 1.0 mi NNE 4.6 mph - N/A   Mist
5:41 AM 59.0 °F 59.0 °F 100% 30.36 in 1.2 mi NNE 4.6 mph - N/A   Mostly Cloudy
5:43 AM 59.0 °F 59.0 °F 100% 30.36 in 1.5 mi Calm Calm - N/A   Mostly Cloudy
5:44 AM 59.0 °F 59.0 °F 100% 30.36 in 1.8 mi Variable 3.5 mph - N/A   Mostly Cloudy
5:45 AM 59.0 °F 59.0 °F 100% 30.36 in 2.0 mi NNE 3.5 mph - N/A   Mostly Cloudy
5:48 AM 59.0 °F 59.0 °F 100% 30.36 in 3.0 mi NNE 3.5 mph - N/A   Mostly Cloudy
5:49 AM 59.0 °F 59.0 °F 100% 30.36 in 3.0 mi NNE 3.5 mph - N/A   Scattered Clouds
5:52 AM 59.0 °F 59.0 °F 100% 30.36 in 4.0 mi NNE 3.5 mph - N/A   Scattered Clouds
5:55 AM 58.3 °F 58.3 °F 100% 30.36 in 4.0 mi NNE 3.5 mph - N/A   Scattered Clouds
5:59 AM 59.0 °F 59.0 °F 100% 30.36 in 5.0 mi Calm Calm - N/A   Mostly Cloudy
6:14 AM 59.0 °F 59.0 °F 100% 30.37 in 3.0 mi NE 4.6 mph - N/A   Mostly Cloudy
6:15 AM 59.0 °F 59.0 °F 100% 30.37 in 2.5 mi NE 3.5 mph - N/A   Mostly Cloudy
6:18 AM 59.0 °F 59.0 °F 100% 30.37 in 1.8 mi Calm Calm - N/A   Overcast
6:20 AM 59.0 °F 59.0 °F 100% 30.37 in 1.5 mi NNE 5.8 mph - N/A   Overcast
6:31 AM 59.0 °F 59.0 °F 100% 30.37 in 1.8 mi NNE 4.6 mph - N/A   Overcast
6:37 AM 59.0 °F 59.0 °F 100% 30.37 in 2.0 mi NNE 4.6 mph - N/A   Overcast
6:54 AM 60.8 °F 60.8 °F 100% 30.38 in 1.8 mi ENE 4.6 mph - N/A   Overcast
6:55 AM 59.9 °F 59.9 °F 100% 30.38 in 1.8 mi ENE 3.5 mph - N/A   Overcast
7:00 AM 60.8 °F 60.8 °F 100% 30.38 in 1.5 mi ENE 4.6 mph - N/A   Mostly Cloudy
7:07 AM 60.8 °F 60.8 °F 100% 30.38 in 1.2 mi Calm Calm - N/A   Mostly Cloudy
7:15 AM 60.8 °F 60.8 °F 100% 30.38 in 1.0 mi Calm Calm - N/A   Mist
7:19 AM 60.8 °F 60.8 °F 100% 30.38 in 0.8 mi NE 3.5 mph - N/A   Mist
7:24 AM 60.8 °F 60.8 °F 100% 30.38 in 0.5 mi NE 3.5 mph - N/A Fog Fog
7:51 AM 60.8 °F 60.8 °F 100% 30.39 in 0.5 mi ENE 3.5 mph - N/A Fog Fog
7:55 AM 61.0 °F 61.0 °F 100% 30.39 in 0.5 mi ENE 4.6 mph - N/A Fog Fog
8:03 AM 60.8 °F 60.8 °F 100% 30.39 in 0.5 mi ENE 6.9 mph - N/A Fog Fog
8:04 AM 60.8 °F 60.8 °F 100% 30.39 in 0.8 mi ENE 5.8 mph - N/A   Mist
8:07 AM 60.8 °F 60.8 °F 100% 30.39 in 1.0 mi ENE 5.8 mph - N/A   Mist
8:11 AM 60.8 °F 60.8 °F 100% 30.39 in 1.2 mi ENE 3.5 mph - N/A   Overcast
8:16 AM 62.6 °F 62.6 °F 100% 30.40 in 1.5 mi ENE 5.8 mph - N/A   Overcast
8:19 AM 62.6 °F 62.6 °F 100% 30.40 in 1.8 mi ENE 3.5 mph - N/A   Overcast
8:21 AM 62.6 °F 62.6 °F 100% 30.40 in 2.0 mi ENE 5.8 mph - N/A   Overcast
8:25 AM 62.6 °F 62.6 °F 100% 30.40 in 3.0 mi ENE 5.8 mph - N/A   Overcast
8:55 AM 63.1 °F 63.1 °F 100% 30.40 in 8.0 mi ENE 6.9 mph - N/A   Overcast
8:58 AM 62.6 °F 62.6 °F 100% 30.40 in 9.0 mi ENE 6.9 mph - N/A   Overcast
9:18 AM 62.6 °F 62.6 °F 100% 30.40 in 10.0 mi ENE 6.9 mph - N/A   Overcast
9:24 AM 64.4 °F 64.4 °F 100% 30.39 in 10.0 mi ENE 4.6 mph - N/A   Overcast
9:45 AM 64.4 °F 64.4 °F 100% 30.39 in 10.0 mi ENE 6.9 mph - N/A   Mostly Cloudy
9:55 AM 65.7 °F 64.9 °F 98% 30.40 in 10.0 mi ENE 8.1 mph - N/A   Overcast
10:18 AM 66.2 °F 64.4 °F 94% 30.39 in 10.0 mi East 12.7 mph 18.4 mph N/A   Overcast
10:30 AM 68.0 °F 62.6 °F 83% 30.39 in 10.0 mi ENE 8.1 mph - N/A   Mostly Cloudy
10:35 AM 68.0 °F 62.6 °F 83% 30.39 in 10.0 mi ENE 9.2 mph - N/A   Mostly Cloudy
10:55 AM 68.0 °F 62.4 °F 82% 30.38 in 10.0 mi ENE 10.4 mph - N/A   Mostly Cloudy
11:41 AM 69.8 °F 62.6 °F 78% 30.36 in 10.0 mi ENE 9.2 mph - N/A   Overcast
11:55 AM 69.6 °F 60.8 °F 73% 30.36 in 10.0 mi ENE 13.8 mph 19.6 mph N/A   Overcast
12:08 PM 69.8 °F 60.8 °F 73% 30.35 in 10.0 mi ENE 11.5 mph 20.7 mph N/A   Overcast
12:44 PM 71.6 °F 59.0 °F 64% 30.34 in 10.0 mi ENE 11.5 mph - N/A   Overcast
12:55 PM 70.9 °F 59.2 °F 66% 30.34 in 10.0 mi ENE 10.4 mph - N/A   Overcast
1:21 PM 69.8 °F 59.0 °F 68% 30.35 in 10.0 mi East 13.8 mph 20.7 mph N/A   Light Drizzle
1:55 PM 65.1 °F 61.2 °F 87% 30.35 in 6.0 mi ENE 10.4 mph - 0.00 in   Light Drizzle
1:58 PM 64.4 °F 60.8 °F 88% 30.35 in 5.0 mi East 10.4 mph - N/A   Light Drizzle
2:03 PM 64.4 °F 60.8 °F 88% 30.34 in 4.0 mi ENE 11.5 mph - N/A Rain Light Rain
2:28 PM 64.4 °F 62.6 °F 94% 30.35 in 2.5 mi ENE 10.4 mph - N/A   Light Drizzle
2:34 PM 64.4 °F 62.6 °F 94% 30.35 in 3.0 mi East 8.1 mph - N/A Rain Light Rain
2:36 PM 64.4 °F 62.6 °F 94% 30.35 in 3.0 mi ENE 8.1 mph - N/A Rain Light Rain
2:37 PM 64.4 °F 62.6 °F 94% 30.35 in 2.5 mi ENE 8.1 mph - N/A Rain Light Rain
2:39 PM 64.4 °F 62.6 °F 94% 30.35 in 2.5 mi East 8.1 mph - N/A Rain Light Rain
2:45 PM 64.4 °F 62.6 °F 94% 30.35 in 2.5 mi ENE 6.9 mph - N/A   Light Drizzle
2:46 PM 64.4 °F 62.6 °F 94% 30.35 in 3.0 mi East 6.9 mph - N/A   Light Drizzle
2:47 PM 64.4 °F 62.6 °F 94% 30.35 in 3.0 mi East 8.1 mph - N/A   Light Drizzle
2:55 PM 63.7 °F 61.9 °F 94% 30.35 in 4.0 mi ENE 8.1 mph - 0.02 in   Light Drizzle
3:00 PM 62.6 °F 62.6 °F 100% 30.35 in 5.0 mi ENE 8.1 mph - N/A   Overcast
3:08 PM 64.4 °F 62.6 °F 94% 30.35 in 10.0 mi ENE 8.1 mph - N/A   Overcast
3:10 PM 62.6 °F 62.6 °F 100% 30.35 in 10.0 mi ENE 6.9 mph - N/A   Overcast
3:55 PM 63.1 °F 61.3 °F 94% 30.35 in 10.0 mi ENE 9.2 mph - 0.00 in   Overcast
4:05 PM 62.6 °F 60.8 °F 94% 30.35 in 10.0 mi ENE 8.1 mph - N/A   Overcast
4:55 PM 63.3 °F 60.6 °F 91% 30.35 in 10.0 mi ENE 5.8 mph - N/A   Overcast
5:31 PM 62.6 °F 60.8 °F 94% 30.34 in 10.0 mi ENE 8.1 mph - N/A   Overcast
5:36 PM 62.6 °F 60.8 °F 94% 30.34 in 10.0 mi East 8.1 mph - N/A   Overcast
5:55 PM 63.0 °F 61.2 °F 94% 30.34 in 10.0 mi ENE 6.9 mph - N/A   Overcast
6:16 PM 62.6 °F 60.8 °F 94% 30.35 in 10.0 mi NE 5.8 mph - N/A   Overcast
6:36 PM 62.6 °F 60.8 °F 94% 30.35 in 10.0 mi ENE 5.8 mph - N/A   Overcast
6:46 PM 62.6 °F 60.8 °F 94% 30.34 in 8.0 mi ENE 5.8 mph - N/A   Overcast
6:48 PM 62.6 °F 60.8 °F 94% 30.34 in 7.0 mi ENE 4.6 mph - N/A   Overcast
6:55 PM 62.2 °F 61.3 °F 97% 30.35 in 5.0 mi ENE 3.5 mph - N/A   Overcast
6:59 PM 62.6 °F 60.8 °F 94% 30.35 in 4.0 mi ENE 4.6 mph - N/A   Overcast
7:01 PM 62.6 °F 60.8 °F 94% 30.35 in 3.0 mi ENE 3.5 mph - N/A   Overcast
7:05 PM 62.6 °F 60.8 °F 94% 30.35 in 2.5 mi ENE 4.6 mph - N/A   Overcast
7:11 PM 62.6 °F 60.8 °F 94% 30.35 in 1.8 mi ENE 5.8 mph - N/A   Overcast
7:13 PM 62.6 °F 60.8 °F 94% 30.35 in 1.5 mi ENE 5.8 mph - N/A   Overcast
7:14 PM 62.6 °F 60.8 °F 94% 30.35 in 1.5 mi NE 3.5 mph - N/A   Overcast
7:20 PM 62.6 °F 60.8 °F 94% 30.35 in 1.2 mi NE 4.6 mph - N/A   Overcast
7:26 PM 62.6 °F 60.8 °F 94% 30.35 in 1.0 mi NE 4.6 mph - N/A   Mist
7:29 PM 62.6 °F 60.8 °F 94% 30.35 in 1.0 mi NE 4.6 mph - N/A   Mist
7:33 PM 62.6 °F 60.8 °F 94% 30.35 in 0.8 mi NE 5.8 mph - N/A   Mist
7:34 PM 62.6 °F 60.8 °F 94% 30.35 in 0.8 mi ENE 6.9 mph - N/A   Mist
7:55 PM 62.1 °F 61.7 °F 99% 30.35 in 0.8 mi NE 4.6 mph - N/A   Mist
8:13 PM 62.6 °F 62.6 °F 100% 30.35 in 0.8 mi NE 6.9 mph - N/A   Mist
8:14 PM 62.6 °F 62.6 °F 100% 30.35 in 0.8 mi NE 6.9 mph - N/A   Mist
8:17 PM 62.6 °F 62.6 °F 100% 30.35 in 0.8 mi NE 8.1 mph - N/A   Mist
8:18 PM 62.6 °F 60.8 °F 94% 30.35 in 1.0 mi ENE 6.9 mph - N/A   Mist
8:22 PM 62.6 °F 60.8 °F 94% 30.35 in 1.2 mi ENE 6.9 mph - N/A   Overcast
8:26 PM 62.6 °F 60.8 °F 94% 30.35 in 1.5 mi NE 8.1 mph - N/A   Overcast
8:30 PM 60.8 °F 60.8 °F 100% 30.35 in 1.8 mi NE 6.9 mph - N/A   Mostly Cloudy
8:35 PM 60.8 °F 60.8 °F 100% 30.35 in 2.0 mi NE 5.8 mph - N/A   Mostly Cloudy
8:55 PM 61.3 °F 61.0 °F 99% 30.35 in 2.0 mi ENE 4.6 mph - N/A   Mostly Cloudy
9:09 PM 60.8 °F 60.8 °F 100% 30.35 in 1.8 mi ENE 6.9 mph - N/A   Mostly Cloudy
9:12 PM 60.8 °F 60.8 °F 100% 30.35 in 1.5 mi ENE 6.9 mph - N/A   Mostly Cloudy
9:16 PM 60.8 °F 60.8 °F 100% 30.35 in 1.2 mi ENE 4.6 mph - N/A   Overcast
9:24 PM 60.8 °F 60.8 °F 100% 30.35 in 1.0 mi ENE 4.6 mph - N/A   Mist
9:29 PM 60.8 °F 60.8 °F 100% 30.35 in 1.0 mi NE 5.8 mph - N/A   Mist
9:31 PM 60.8 °F 60.8 °F 100% 30.35 in 0.8 mi ENE 4.6 mph - N/A   Mist
9:37 PM 60.8 °F 60.8 °F 100% 30.35 in 0.8 mi ENE 3.5 mph - N/A   Mist
9:43 PM 60.8 °F 60.8 °F 100% 30.34 in 0.8 mi East 5.8 mph - N/A   Mist
9:52 PM 60.8 °F 60.8 °F 100% 30.34 in 1.0 mi East 5.8 mph - N/A   Mist
9:55 PM 60.4 °F 60.4 °F 100% 30.33 in 1.0 mi East 4.6 mph - N/A   Mist
10:00 PM 60.8 °F 60.8 °F 100% 30.33 in 0.8 mi East 5.8 mph - N/A   Mist
10:06 PM 60.8 °F 60.8 °F 100% 30.33 in 0.8 mi East 5.8 mph - N/A   Mist
10:15 PM 60.8 °F 60.8 °F 100% 30.34 in 0.5 mi ENE 4.6 mph - N/A Fog Fog
10:55 PM 60.4 °F 60.4 °F 100% 30.34 in 0.5 mi NE 3.5 mph - N/A Fog Fog
11:07 PM 60.8 °F 60.8 °F 100% 30.33 in 0.8 mi ENE 5.8 mph - N/A   Mist
11:08 PM 60.8 °F 60.8 °F 100% 30.33 in 0.8 mi ENE 5.8 mph - N/A   Mist
11:14 PM 60.8 °F 60.8 °F 100% 30.33 in 1.0 mi ENE 5.8 mph - N/A   Mist
11:17 PM 60.8 °F 60.8 °F 100% 30.32 in 1.0 mi ENE 5.8 mph - N/A   Mist
11:20 PM 60.8 °F 60.8 °F 100% 30.32 in 1.2 mi ENE 5.8 mph - N/A   Overcast
11:23 PM 60.8 °F 60.8 °F 100% 30.32 in 1.5 mi ENE 5.8 mph - N/A   Overcast
11:26 PM 60.8 °F 60.8 °F 100% 30.32 in 1.8 mi East 4.6 mph - N/A   Mostly Cloudy
11:29 PM 60.8 °F 60.8 °F 100% 30.32 in 2.0 mi East 5.8 mph - N/A   Mostly Cloudy
11:35 PM 60.8 °F 60.8 °F 100% 30.31 in 1.8 mi East 6.9 mph - N/A   Mostly Cloudy
11:42 PM 60.8 °F 60.8 °F 100% 30.31 in 1.5 mi East 5.8 mph - N/A   Mostly Cloudy
11:53 PM 59.0 °F 59.0 °F 100% 30.31 in 1.8 mi East 3.5 mph - N/A   Mostly Cloudy
11:55 PM 59.7 °F 59.7 °F 100% 30.31 in 1.8 mi East 3.5 mph - N/A   Mostly Cloudy
11:57 PM 59.0 °F 59.0 °F 100% 30.31 in 2.0 mi ENE 4.6 mph - N/A   Mostly Cloudy